Time;durP1;ratioP1;P1;durP2;ratioP2;P2;SDS_P1;SDS_P2;PMS_P1;PMS_P2;Temp;Humidity;BMP_temperature;BMP_pressure;BME280_temperature;BME280_humidity;BME280_pressure;Samples;Min_cycle;Max_cycle;Signal;HPM_P1;HPM_P2
2023/05/17 00:02:03;;;;;;;;;1.00;1.00;;;;;;;;5057490;28;45473;-76
2023/05/17 00:04:28;;;;;;;;;3.00;0.67;;;;;;;;5057440;28;45340;-77
2023/05/17 00:06:53;;;;;;;;;3.33;3.00;;;;;;;;5057255;28;46306;-76
2023/05/17 00:09:18;;;;;;;;;3.00;1.00;;;;;;;;5057082;28;45912;-76
2023/05/17 00:11:44;;;;;;;;;2.33;1.00;;;;;;;;5057361;28;45479;-77
2023/05/17 00:14:09;;;;;;;;;1.33;1.00;;;;;;;;5037097;28;45400;-77
2023/05/17 00:16:34;;;;;;;;;3.25;1.00;;;;;;;;5036881;28;46588;-76
2023/05/17 00:18:59;;;;;;;;;1.00;1.00;;;;;;;;5036930;28;45294;-76
2023/05/17 00:21:25;;;;;;;;;1.67;0.67;;;;;;;;5037174;28;45401;-76
2023/05/17 00:23:50;;;;;;;;;2.50;0.75;;;;;;;;5036688;28;45368;-76
2023/05/17 00:26:15;;;;;;;;;1.00;0.33;;;;;;;;5018958;28;46194;-76
2023/05/17 00:28:40;;;;;;;;;1.00;1.00;;;;;;;;5036671;28;45365;-76
2023/05/17 00:31:05;;;;;;;;;0.00;0.00;;;;;;;;5037038;28;45372;-76
2023/05/17 00:33:31;;;;;;;;;3.33;1.00;;;;;;;;5036842;28;45326;-76
2023/05/17 00:35:56;;;;;;;;;2.00;1.00;;;;;;;;5036313;28;45415;-76
2023/05/17 00:38:21;;;;;;;;;4.67;1.33;;;;;;;;5035527;28;45437;-76
2023/05/17 00:40:48;;;;;;;;;1.00;1.00;;;;;;;;5036849;28;45248;-76
2023/05/17 00:43:13;;;;;;;;;0.50;0.00;;;;;;;;5036777;28;45362;-76
2023/05/17 00:45:38;;;;;;;;;1.67;1.00;;;;;;;;5036408;28;45593;-76
2023/05/17 00:48:03;;;;;;;;;1.00;1.00;;;;;;;;5036539;28;45349;-76
2023/05/17 00:50:28;;;;;;;;;1.00;1.00;;;;;;;;5036441;28;45302;-77
2023/05/17 00:52:54;;;;;;;;;2.00;1.00;;;;;;;;5036195;28;45431;-76
2023/05/17 00:55:20;;;;;;;;;1.00;1.00;;;;;;;;5036282;28;45361;-76
2023/05/17 00:57:45;;;;;;;;;0.00;0.00;;;;;;;;5036399;28;45404;-76
2023/05/17 01:00:10;;;;;;;;;1.33;1.00;;;;;;;;5036719;28;45357;-76
2023/05/17 01:02:36;;;;;;;;;2.00;1.00;;;;;;;;5036194;28;45512;-76
2023/05/17 01:05:01;;;;;;;;;0.67;0.00;;;;;;;;5036223;28;47027;-77
2023/05/17 01:07:26;;;;;;;;;3.00;1.00;;;;;;;;5036050;28;45331;-76
2023/05/17 01:09:51;;;;;;;;;4.00;1.00;;;;;;;;5018341;28;45343;-76
2023/05/17 01:12:35;;;;;;;;;2.00;1.25;;;;;;;;5040671;28;45192;-76
2023/05/17 01:15:10;;;;;;;;;2.50;0.50;;;;;;;;5037735;28;46688;-76
2023/05/17 01:17:40;;;;;;;;;0.00;0.00;;;;;;;;5056372;28;45490;-76
2023/05/17 01:20:09;;;;;;;;;1.00;1.00;;;;;;;;5056334;28;45656;-77
2023/05/17 01:22:50;;;;;;;;;1.50;0.75;;;;;;;;5055753;28;45307;-76
2023/05/17 01:25:19;;;;;;;;;3.50;2.00;;;;;;;;5055968;28;47239;-77
2023/05/17 01:27:47;;;;;;;;;2.50;1.00;;;;;;;;5055956;28;45435;-76
2023/05/17 01:30:14;;;;;;;;;0.00;0.00;;;;;;;;5056195;28;45458;-77
2023/05/17 01:32:42;;;;;;;;;1.00;1.00;;;;;;;;5056088;28;45483;-77
2023/05/17 01:35:09;;;;;;;;;0.75;0.75;;;;;;;;5055895;28;46197;-77
2023/05/17 01:37:34;;;;;;;;;1.00;1.00;;;;;;;;5055582;28;45444;-77
2023/05/17 01:39:59;;;;;;;;;2.00;1.00;;;;;;;;5055952;28;45372;-79
2023/05/17 01:42:28;;;;;;;;;1.67;1.00;;;;;;;;5055907;28;45275;-77
2023/05/17 01:45:05;;;;;;;;;3.75;2.00;;;;;;;;5055465;28;45389;-76
2023/05/17 01:47:42;;;;;;;;;1.00;1.00;;;;;;;;5055541;28;45428;-77
2023/05/17 01:50:09;;;;;;;;;2.25;1.00;;;;;;;;5055524;28;45365;-76
2023/05/17 01:52:39;;;;;;;;;3.00;2.00;;;;;;;;5037887;28;45347;-76
2023/05/17 01:55:07;;;;;;;;;3.00;2.00;;;;;;;;5055658;28;46451;-76
2023/05/17 01:57:34;;;;;;;;;6.00;1.00;;;;;;;;5055788;28;45434;-76
2023/05/17 02:00:01;;;;;;;;;3.50;1.50;;;;;;;;5055703;28;45431;-76
2023/05/17 02:02:27;;;;;;;;;5.50;3.00;;;;;;;;5055693;28;45359;-76
2023/05/17 02:04:53;;;;;;;;;3.75;1.00;;;;;;;;5055415;28;46094;-77
2023/05/17 02:07:18;;;;;;;;;3.50;2.00;;;;;;;;5055551;28;45709;-76
2023/05/17 02:09:43;;;;;;;;;3.00;2.00;;;;;;;;5055694;28;45730;-76
2023/05/17 02:12:09;;;;;;;;;3.00;1.00;;;;;;;;5055621;28;45428;-76
2023/05/17 02:14:34;;;;;;;;;7.00;1.00;;;;;;;;5055202;28;46529;-76
2023/05/17 02:16:59;;;;;;;;;3.00;3.00;;;;;;;;5055376;28;45363;-76
2023/05/17 02:19:24;;;;;;;;;4.00;2.00;;;;;;;;5055127;28;45308;-77
2023/05/17 02:21:49;;;;;;;;;3.33;3.33;;;;;;;;5055464;28;45359;-76
2023/05/17 02:24:15;;;;;;;;;6.00;2.00;;;;;;;;5055353;28;46765;-77
2023/05/17 02:26:41;;;;;;;;;2.67;2.00;;;;;;;;5055104;28;45392;-77
2023/05/17 02:29:07;;;;;;;;;2.00;1.00;;;;;;;;5055324;28;45337;-77
2023/05/17 02:31:32;;;;;;;;;4.50;3.25;;;;;;;;5055418;28;45398;-76
2023/05/17 02:33:57;;;;;;;;;9.00;3.00;;;;;;;;5054849;28;46691;-77
2023/05/17 02:36:22;;;;;;;;;4.00;3.00;;;;;;;;5055314;28;45269;-77
2023/05/17 02:38:48;;;;;;;;;3.00;3.00;;;;;;;;5055397;28;45408;-77
2023/05/17 02:41:13;;;;;;;;;3.00;2.33;;;;;;;;5055235;28;45425;-77
2023/05/17 02:43:38;;;;;;;;;6.00;3.00;;;;;;;;5055057;28;45980;-77
2023/05/17 02:46:03;;;;;;;;;4.67;2.00;;;;;;;;5054975;28;45439;-77
2023/05/17 02:48:29;;;;;;;;;8.00;4.00;;;;;;;;5054864;28;45439;-77
2023/05/17 02:50:54;;;;;;;;;6.00;3.00;;;;;;;;5055284;28;45441;-77
2023/05/17 02:53:19;;;;;;;;;6.00;4.00;;;;;;;;5054880;28;45438;-77
2023/05/17 02:55:44;;;;;;;;;7.00;4.00;;;;;;;;5054961;28;45267;-77
2023/05/17 02:58:10;;;;;;;;;3.00;1.75;;;;;;;;5055108;28;45327;-76
2023/05/17 03:00:35;;;;;;;;;7.25;4.50;;;;;;;;5056498;28;45373;-76
2023/05/17 03:03:00;;;;;;;;;4.67;3.00;;;;;;;;5058083;28;46441;-77
2023/05/17 03:05:26;;;;;;;;;5.50;2.00;;;;;;;;5058054;28;45454;-77
2023/05/17 03:07:51;;;;;;;;;5.33;5.33;;;;;;;;5058309;28;45335;-77
2023/05/17 03:10:16;;;;;;;;;3.67;3.67;;;;;;;;5058332;28;45538;-77
2023/05/17 03:12:41;;;;;;;;;3.00;2.67;;;;;;;;5058186;28;46576;-77
2023/05/17 03:15:06;;;;;;;;;3.00;3.00;;;;;;;;5058268;28;45440;-77
2023/05/17 03:17:32;;;;;;;;;1.50;1.25;;;;;;;;5058047;28;45383;-76
2023/05/17 03:19:57;;;;;;;;;5.33;3.00;;;;;;;;5058113;28;45306;-77
2023/05/17 03:22:22;;;;;;;;;4.00;4.00;;;;;;;;5057851;28;46270;-77
2023/05/17 03:24:47;;;;;;;;;7.00;5.67;;;;;;;;5058001;28;45290;-76
2023/05/17 03:27:12;;;;;;;;;2.33;2.33;;;;;;;;5058116;28;45188;-77
2023/05/17 03:29:38;;;;;;;;;3.67;3.67;;;;;;;;5058219;28;45242;-77
2023/05/17 03:32:03;;;;;;;;;6.67;4.00;;;;;;;;5057311;28;46687;-77
2023/05/17 03:34:28;;;;;;;;;4.50;2.50;;;;;;;;5057768;28;45272;-76
2023/05/17 03:36:53;;;;;;;;;4.00;3.00;;;;;;;;5057885;28;45422;-77
2023/05/17 03:39:18;;;;;;;;;6.67;3.33;;;;;;;;5057829;28;45449;-76
2023/05/17 03:41:44;;;;;;;;;4.67;3.33;;;;;;;;5057652;28;46279;-77
2023/05/17 03:44:09;;;;;;;;;4.00;3.33;;;;;;;;5057601;28;45383;-76
2023/05/17 03:46:34;;;;;;;;;7.25;4.00;;;;;;;;5057338;28;45281;-75
2023/05/17 03:48:59;;;;;;;;;9.00;4.00;;;;;;;;5057659;28;45570;-76
2023/05/17 03:51:25;;;;;;;;;3.00;3.00;;;;;;;;5057465;28;46446;-76
2023/05/17 03:53:56;;;;;;;;;4.00;3.00;;;;;;;;5057590;28;45331;-77
2023/05/17 03:56:21;;;;;;;;;7.00;4.00;;;;;;;;5057670;28;45388;-76
2023/05/17 03:58:46;;;;;;;;;6.67;4.33;;;;;;;;5057435;28;45353;-77
2023/05/17 04:01:11;;;;;;;;;8.00;4.67;;;;;;;;5057227;28;45501;-76
2023/05/17 04:03:36;;;;;;;;;6.00;4.00;;;;;;;;5057393;28;45573;-76
2023/05/17 04:06:05;;;;;;;;;7.25;5.75;;;;;;;;5057406;28;45416;-76
2023/05/17 04:08:30;;;;;;;;;4.00;3.00;;;;;;;;5057343;28;45463;-76
2023/05/17 04:10:56;;;;;;;;;5.33;5.00;;;;;;;;5038848;28;46656;-76
2023/05/17 04:13:21;;;;;;;;;7.67;5.67;;;;;;;;5057047;28;45366;-75
2023/05/17 04:15:46;;;;;;;;;6.00;6.00;;;;;;;;5057062;28;45387;-76
2023/05/17 04:18:11;;;;;;;;;2.33;2.33;;;;;;;;5057433;28;45547;-76
2023/05/17 04:20:36;;;;;;;;;4.00;3.00;;;;;;;;5057070;28;45483;-76
2023/05/17 04:23:01;;;;;;;;;6.00;3.00;;;;;;;;5057194;28;45403;-76
2023/05/17 04:25:27;;;;;;;;;6.33;3.33;;;;;;;;5057167;28;45345;-76
2023/05/17 04:27:52;;;;;;;;;6.67;4.33;;;;;;;;5057036;28;45402;-76
2023/05/17 04:30:17;;;;;;;;;7.33;4.00;;;;;;;;5056548;28;47209;-76
2023/05/17 04:32:42;;;;;;;;;6.25;6.00;;;;;;;;5057103;28;45397;-76
2023/05/17 04:35:08;;;;;;;;;7.33;3.00;;;;;;;;5057115;28;45429;-76
2023/05/17 04:37:33;;;;;;;;;10.00;5.50;;;;;;;;5057062;28;45486;-76
2023/05/17 04:39:58;;;;;;;;;6.00;3.00;;;;;;;;5056880;28;45420;-77
2023/05/17 04:42:23;;;;;;;;;3.33;2.00;;;;;;;;5056868;28;45455;-76
2023/05/17 04:44:49;;;;;;;;;6.67;3.67;;;;;;;;5056461;28;45264;-76
2023/05/17 04:47:14;;;;;;;;;6.00;3.50;;;;;;;;5056813;28;45618;-76
2023/05/17 04:49:40;;;;;;;;;6.67;4.67;;;;;;;;5056520;28;46732;-76
2023/05/17 04:52:05;;;;;;;;;13.00;3.00;;;;;;;;5056819;28;45301;-76
2023/05/17 04:54:30;;;;;;;;;11.50;3.00;;;;;;;;5056633;28;45339;-76
2023/05/17 04:56:56;;;;;;;;;5.00;4.67;;;;;;;;5056775;28;45170;-76
2023/05/17 04:59:21;;;;;;;;;11.33;4.00;;;;;;;;5056312;28;45628;-76
2023/05/17 05:01:46;;;;;;;;;8.67;4.00;;;;;;;;5056479;28;45238;-75
2023/05/17 05:04:11;;;;;;;;;4.00;4.00;;;;;;;;5056842;28;45426;-76
2023/05/17 05:06:36;;;;;;;;;9.00;4.00;;;;;;;;5056638;28;45385;-76
2023/05/17 05:09:03;;;;;;;;;8.33;3.00;;;;;;;;5056275;28;46865;-76
2023/05/17 05:11:28;;;;;;;;;8.50;5.00;;;;;;;;5056508;28;45445;-76
2023/05/17 05:13:53;;;;;;;;;6.25;4.25;;;;;;;;5055940;28;45308;-75
2023/05/17 05:16:18;;;;;;;;;6.67;5.33;;;;;;;;5056829;28;45388;-76
2023/05/17 05:18:44;;;;;;;;;3.00;2.33;;;;;;;;5038213;28;48286;-76
2023/05/17 05:21:09;;;;;;;;;9.00;8.33;;;;;;;;5056162;28;45397;-76
2023/05/17 05:23:34;;;;;;;;;8.33;6.00;;;;;;;;5055767;28;45439;-76
2023/05/17 05:26:00;;;;;;;;;3.75;3.00;;;;;;;;5056214;28;45452;-74
2023/05/17 05:28:25;;;;;;;;;11.75;4.00;;;;;;;;5055539;28;46656;-75
2023/05/17 05:30:55;;;;;;;;;6.33;4.00;;;;;;;;5056316;28;45462;-76
2023/05/17 05:33:20;;;;;;;;;6.75;6.75;;;;;;;;5056357;28;45490;-76
2023/05/17 05:35:46;;;;;;;;;7.33;4.67;;;;;;;;5056195;28;45368;-76
2023/05/17 05:38:11;;;;;;;;;8.25;4.00;;;;;;;;5055890;28;46152;-75
2023/05/17 05:40:36;;;;;;;;;6.00;6.00;;;;;;;;5056074;28;45434;-76
2023/05/17 05:43:01;;;;;;;;;8.67;6.33;;;;;;;;5055968;28;45609;-76
2023/05/17 05:45:26;;;;;;;;;9.33;6.00;;;;;;;;5055916;28;45475;-76
2023/05/17 05:47:52;;;;;;;;;6.67;6.00;;;;;;;;5055839;28;45450;-76
2023/05/17 05:50:17;;;;;;;;;7.33;4.00;;;;;;;;5055928;28;45240;-76
2023/05/17 05:52:42;;;;;;;;;4.00;3.75;;;;;;;;5055963;28;45305;-75
2023/05/17 05:55:07;;;;;;;;;9.67;5.33;;;;;;;;5055961;28;45322;-76
2023/05/17 05:57:33;;;;;;;;;6.00;3.00;;;;;;;;5055473;28;46182;-76
2023/05/17 05:59:58;;;;;;;;;8.00;3.33;;;;;;;;5055861;28;45570;-76
2023/05/17 06:02:23;;;;;;;;;9.00;4.00;;;;;;;;5055965;28;45420;-76
2023/05/17 06:04:48;;;;;;;;;6.50;6.00;;;;;;;;5055806;28;45442;-76
2023/05/17 06:07:14;;;;;;;;;6.00;5.33;;;;;;;;5055610;28;47002;-76
2023/05/17 06:09:39;;;;;;;;;6.50;6.00;;;;;;;;5055664;28;45444;-76
2023/05/17 06:12:04;;;;;;;;;9.00;7.00;;;;;;;;5055384;28;45348;-75
2023/05/17 06:14:30;;;;;;;;;10.00;6.33;;;;;;;;5055602;28;45296;-75
2023/05/17 06:16:55;;;;;;;;;6.33;4.00;;;;;;;;5055595;28;45364;-76
2023/05/17 06:19:20;;;;;;;;;8.00;6.67;;;;;;;;5055607;28;45432;-76
2023/05/17 06:21:45;;;;;;;;;9.00;5.33;;;;;;;;5055838;28;45433;-75
2023/05/17 06:24:10;;;;;;;;;7.00;3.00;;;;;;;;5055405;28;45280;-76
2023/05/17 06:26:35;;;;;;;;;8.00;6.00;;;;;;;;5054923;28;46736;-76
2023/05/17 06:29:01;;;;;;;;;7.00;5.33;;;;;;;;5055555;28;45316;-76
2023/05/17 06:31:26;;;;;;;;;4.67;4.00;;;;;;;;5055598;28;45272;-76
2023/05/17 06:33:51;;;;;;;;;8.00;3.33;;;;;;;;5055290;28;45510;-76
2023/05/17 06:36:16;;;;;;;;;6.00;4.00;;;;;;;;5057959;28;45378;-75
2023/05/17 06:38:42;;;;;;;;;6.67;3.33;;;;;;;;5058721;28;45429;-75
2023/05/17 06:41:07;;;;;;;;;3.50;2.50;;;;;;;;5056943;28;45467;-75
2023/05/17 06:43:32;;;;;;;;;5.00;3.33;;;;;;;;5058313;28;45365;-76
2023/05/17 06:45:57;;;;;;;;;6.00;3.67;;;;;;;;5057383;28;46442;-74
2023/05/17 06:48:22;;;;;;;;;7.00;3.00;;;;;;;;5039397;28;45388;-76
2023/05/17 06:50:48;;;;;;;;;3.00;3.00;;;;;;;;5055918;28;45489;-77
2023/05/17 06:53:13;;;;;;;;;4.00;4.00;;;;;;;;5058227;28;45348;-77
2023/05/17 06:55:39;;;;;;;;;2.00;2.00;;;;;;;;5057815;28;45746;-75
2023/05/17 06:58:04;;;;;;;;;5.00;4.00;;;;;;;;5057304;28;45296;-75
2023/05/17 07:00:29;;;;;;;;;3.25;2.00;;;;;;;;5058390;28;45202;-75
2023/05/17 07:02:55;;;;;;;;;4.50;2.00;;;;;;;;5058626;28;45352;-77
2023/05/17 07:05:22;;;;;;;;;1.75;1.75;;;;;;;;5058056;28;47220;-78
2023/05/17 07:07:47;;;;;;;;;7.50;3.75;;;;;;;;5056734;28;45364;-78
2023/05/17 07:10:13;;;;;;;;;2.33;2.00;;;;;;;;5057986;28;45271;-77
2023/05/17 07:12:38;;;;;;;;;5.33;2.67;;;;;;;;5057906;28;45218;-77
2023/05/17 07:15:03;;;;;;;;;6.00;3.00;;;;;;;;5057247;28;45398;-78
2023/05/17 07:17:28;;;;;;;;;6.75;4.50;;;;;;;;5057604;28;45293;-78
2023/05/17 07:19:54;;;;;;;;;2.67;2.33;;;;;;;;5062955;28;45411;-76
2023/05/17 07:22:19;;;;;;;;;3.33;2.00;;;;;;;;5062470;27;45446;-77
2023/05/17 07:24:45;;;;;;;;;3.00;2.00;;;;;;;;5056549;28;46867;-76
2023/05/17 07:27:10;;;;;;;;;5.50;3.00;;;;;;;;5053196;28;46539;-78
2023/05/17 07:29:35;;;;;;;;;5.00;2.00;;;;;;;;5052478;28;45388;-76
2023/05/17 07:32:01;;;;;;;;;2.00;2.00;;;;;;;;5051468;28;45598;-77
2023/05/17 07:34:26;;;;;;;;;2.67;2.67;;;;;;;;5057141;28;45997;-77
2023/05/17 07:36:51;;;;;;;;;3.00;2.00;;;;;;;;5048540;28;45463;-77
2023/05/17 07:39:16;;;;;;;;;4.00;2.00;;;;;;;;5056497;28;45399;-77
2023/05/17 07:41:41;;;;;;;;;5.33;2.00;;;;;;;;5053200;28;46888;-77
2023/05/17 07:44:06;;;;;;;;;3.00;2.00;;;;;;;;5052967;28;47218;-76
2023/05/17 07:46:32;;;;;;;;;3.00;2.00;;;;;;;;5056332;28;45552;-77
2023/05/17 07:48:57;;;;;;;;;4.67;2.33;;;;;;;;5056817;28;45337;-77
2023/05/17 07:51:22;;;;;;;;;3.00;2.00;;;;;;;;5054579;28;45813;-77
2023/05/17 07:53:47;;;;;;;;;1.33;1.33;;;;;;;;5050618;28;45618;-77
2023/05/17 07:56:12;;;;;;;;;9.00;3.00;;;;;;;;5047173;28;45376;-77
2023/05/17 07:58:38;;;;;;;;;6.33;2.67;;;;;;;;5041894;28;45792;-77
2023/05/17 08:01:03;;;;;;;;;5.00;4.00;;;;;;;;5047670;28;45518;-77
2023/05/17 08:03:29;;;;;;;;;3.75;3.00;;;;;;;;5056291;28;46119;-77
2023/05/17 08:05:54;;;;;;;;;5.00;3.50;;;;;;;;5049413;28;45802;-76
2023/05/17 08:08:20;;;;;;;;;7.67;2.67;;;;;;;;5048141;28;45586;-76
2023/05/17 08:10:45;;;;;;;;;5.25;3.00;;;;;;;;5036330;28;45385;-76
2023/05/17 08:13:10;;;;;;;;;1.00;1.00;;;;;;;;5053006;28;45583;-76
2023/05/17 08:15:35;;;;;;;;;3.00;2.00;;;;;;;;5043298;28;45766;-77
2023/05/17 08:18:00;;;;;;;;;6.00;3.00;;;;;;;;5054000;28;45367;-76
2023/05/17 08:20:25;;;;;;;;;3.00;2.67;;;;;;;;5056383;28;45427;-77
2023/05/17 08:22:51;;;;;;;;;5.00;2.00;;;;;;;;5053714;28;46699;-76
2023/05/17 08:25:16;;;;;;;;;4.00;3.00;;;;;;;;5049716;28;45451;-77
2023/05/17 08:27:41;;;;;;;;;3.67;2.33;;;;;;;;5056081;28;45443;-77
2023/05/17 08:30:07;;;;;;;;;4.25;2.75;;;;;;;;5049648;28;45455;-76
2023/05/17 08:32:32;;;;;;;;;4.25;2.25;;;;;;;;5055926;28;45332;-76
2023/05/17 08:34:57;;;;;;;;;5.00;2.50;;;;;;;;5047757;28;45386;-77
2023/05/17 08:37:23;;;;;;;;;4.00;1.00;;;;;;;;5055475;28;45642;-77
2023/05/17 08:39:50;;;;;;;;;4.00;2.75;;;;;;;;5050126;28;45424;-77
2023/05/17 08:42:19;;;;;;;;;4.00;1.75;;;;;;;;5055973;28;47071;-77
2023/05/17 08:44:44;;;;;;;;;1.75;1.75;;;;;;;;5050635;28;45337;-77
2023/05/17 08:47:10;;;;;;;;;4.67;2.00;;;;;;;;5051323;28;45343;-76
2023/05/17 08:49:36;;;;;;;;;4.00;2.50;;;;;;;;5045959;28;45486;-77
2023/05/17 08:52:08;;;;;;;;;3.75;2.25;;;;;;;;5038996;28;46473;-77
2023/05/17 08:54:34;;;;;;;;;4.00;1.25;;;;;;;;5040947;28;45861;-77
2023/05/17 08:57:03;;;;;;;;;3.25;1.50;;;;;;;;5053954;28;45684;-76
2023/05/17 08:59:32;;;;;;;;;1.75;1.00;;;;;;;;5051487;28;45755;-76
2023/05/17 09:01:58;;;;;;;;;8.00;1.50;;;;;;;;5054585;28;47207;-76
2023/05/17 09:04:23;;;;;;;;;3.00;2.00;;;;;;;;5043712;28;45485;-77
2023/05/17 09:06:49;;;;;;;;;1.00;1.00;;;;;;;;5053730;28;45419;-75
2023/05/17 09:09:14;;;;;;;;;2.00;1.00;;;;;;;;5051792;28;45277;-76
2023/05/17 09:11:39;;;;;;;;;3.00;2.00;;;;;;;;5054584;28;46185;-76
2023/05/17 09:14:06;;;;;;;;;3.67;1.00;;;;;;;;5053055;28;45323;-76
2023/05/17 09:16:32;;;;;;;;;2.25;2.00;;;;;;;;5050642;28;45287;-77
2023/05/17 09:18:58;;;;;;;;;2.00;1.25;;;;;;;;5055383;28;45388;-77
2023/05/17 09:21:24;;;;;;;;;1.75;1.00;;;;;;;;5044470;28;45269;-77
2023/05/17 09:23:50;;;;;;;;;2.50;1.00;;;;;;;;5044167;28;45572;-77
2023/05/17 09:26:16;;;;;;;;;3.25;1.50;;;;;;;;5038588;28;45447;-77
2023/05/17 09:28:42;;;;;;;;;4.00;2.00;;;;;;;;5051589;28;45522;-77
2023/05/17 09:31:08;;;;;;;;;3.50;2.00;;;;;;;;5055021;28;46172;-77
2023/05/17 09:33:46;;;;;;;;;1.00;1.00;;;;;;;;5053133;28;45447;-77
2023/05/17 09:36:19;;;;;;;;;1.00;0.75;;;;;;;;5055035;28;45401;-77
2023/05/17 09:38:53;;;;;;;;;1.00;1.00;;;;;;;;5039974;28;45508;-77
2023/05/17 09:41:19;;;;;;;;;0.75;0.75;;;;;;;;5037966;28;45493;-77
2023/05/17 09:43:45;;;;;;;;;0.00;0.00;;;;;;;;5052648;28;45784;-77
2023/05/17 09:46:10;;;;;;;;;1.00;1.00;;;;;;;;5055000;28;45442;-77
2023/05/17 09:48:36;;;;;;;;;1.50;1.50;;;;;;;;5045539;28;45293;-76
2023/05/17 09:51:02;;;;;;;;;2.50;1.75;;;;;;;;5042754;28;46391;-78
2023/05/17 09:53:28;;;;;;;;;1.00;1.00;;;;;;;;5053823;28;45567;-78
2023/05/17 09:56:04;;;;;;;;;1.00;1.00;;;;;;;;5054937;28;45506;-77
2023/05/17 09:58:30;;;;;;;;;1.00;1.00;;;;;;;;5049746;28;45633;-78
2023/05/17 10:01:00;;;;;;;;;1.00;1.00;;;;;;;;5037936;28;45608;-78
2023/05/17 10:03:28;;;;;;;;;1.00;1.00;;;;;;;;5053449;28;45595;-77
2023/05/17 10:05:54;;;;;;;;;2.25;0.00;;;;;;;;5055053;28;45328;-77
2023/05/17 10:08:21;;;;;;;;;1.25;1.00;;;;;;;;5049818;28;45566;-77
2023/05/17 10:10:48;;;;;;;;;4.00;1.50;;;;;;;;5043123;28;46990;-77
2023/05/17 10:13:14;;;;;;;;;0.25;0.25;;;;;;;;5046425;28;45605;-77
2023/05/17 10:15:41;;;;;;;;;2.50;1.25;;;;;;;;5054391;28;45460;-78
2023/05/17 10:18:07;;;;;;;;;1.00;1.00;;;;;;;;5049217;28;45496;-77
2023/05/17 10:20:33;;;;;;;;;4.50;1.75;;;;;;;;5057888;28;46303;-77
2023/05/17 10:22:59;;;;;;;;;1.00;0.00;;;;;;;;5058052;28;45500;-78
2023/05/17 10:25:25;;;;;;;;;0.50;0.50;;;;;;;;5058302;28;45744;-78
2023/05/17 10:27:50;;;;;;;;;1.00;1.00;;;;;;;;5058270;28;45407;-78
2023/05/17 10:30:17;;;;;;;;;1.00;0.25;;;;;;;;5058168;28;45746;-77
2023/05/17 10:32:43;;;;;;;;;2.00;1.00;;;;;;;;5056792;28;45312;-76
2023/05/17 10:35:09;;;;;;;;;1.50;1.00;;;;;;;;5041284;28;45641;-78
2023/05/17 10:37:34;;;;;;;;;2.75;0.75;;;;;;;;5057935;28;45385;-78
2023/05/17 10:40:00;;;;;;;;;0.00;0.00;;;;;;;;5057816;28;45473;-77
2023/05/17 10:42:26;;;;;;;;;1.50;1.00;;;;;;;;5057918;28;45345;-78
2023/05/17 10:44:52;;;;;;;;;1.00;0.00;;;;;;;;5057459;28;45255;-78
2023/05/17 10:47:17;;;;;;;;;0.00;0.00;;;;;;;;5057571;28;45202;-78
2023/05/17 10:49:46;;;;;;;;;1.00;1.00;;;;;;;;5057383;28;45830;-78
2023/05/17 10:52:15;;;;;;;;;0.25;0.25;;;;;;;;5057809;28;45589;-77
2023/05/17 10:54:41;;;;;;;;;1.25;1.00;;;;;;;;5057769;28;45463;-78
2023/05/17 10:57:07;;;;;;;;;1.00;1.00;;;;;;;;5053577;28;45482;-78
2023/05/17 10:59:32;;;;;;;;;0.25;0.25;;;;;;;;5052164;28;46214;-78
2023/05/17 11:02:07;;;;;;;;;3.00;1.00;;;;;;;;5057463;28;45464;-78
2023/05/17 11:04:43;;;;;;;;;1.00;0.00;;;;;;;;5050156;28;45521;-78
2023/05/17 11:07:20;;;;;;;;;2.00;0.50;;;;;;;;5040695;28;45515;-78
2023/05/17 11:09:48;;;;;;;;;1.00;0.00;;;;;;;;5045564;28;46506;-78
2023/05/17 11:12:13;;;;;;;;;2.50;0.00;;;;;;;;5053012;28;45369;-78
2023/05/17 11:14:42;;;;;;;;;3.00;1.00;;;;;;;;5053517;28;45395;-77
2023/05/17 11:17:14;;;;;;;;;0.75;0.00;;;;;;;;5057170;28;46057;-77
2023/05/17 11:19:51;;;;;;;;;2.00;0.00;;;;;;;;5044728;28;46262;-77
2023/05/17 11:22:17;;;;;;;;;1.00;1.00;;;;;;;;5052036;28;45411;-76
2023/05/17 11:24:43;;;;;;;;;1.25;0.00;;;;;;;;5044155;28;45487;-78
2023/05/17 11:27:08;;;;;;;;;1.00;0.00;;;;;;;;5056973;28;45440;-77
2023/05/17 11:29:34;;;;;;;;;1.00;1.00;;;;;;;;5056937;28;46188;-78
2023/05/17 11:32:04;;;;;;;;;0.25;0.25;;;;;;;;5056986;28;45463;-77
2023/05/17 11:34:31;;;;;;;;;0.00;0.00;;;;;;;;5046913;28;45504;-77
2023/05/17 11:36:57;;;;;;;;;0.00;0.00;;;;;;;;5056770;28;45276;-76
2023/05/17 11:39:22;;;;;;;;;0.00;0.00;;;;;;;;5052351;28;46302;-77
2023/05/17 11:41:48;;;;;;;;;2.00;0.00;;;;;;;;5036135;28;45353;-77
2023/05/17 11:44:15;;;;;;;;;0.25;0.25;;;;;;;;5043720;28;45495;-78
2023/05/17 11:46:41;;;;;;;;;0.00;0.00;;;;;;;;5038049;28;45385;-80
2023/05/17 11:49:06;;;;;;;;;0.50;0.50;;;;;;;;5056191;28;46674;-79
2023/05/17 11:51:32;;;;;;;;;0.25;0.00;;;;;;;;5056818;28;45348;-78
2023/05/17 11:53:57;;;;;;;;;0.25;0.00;;;;;;;;5045917;28;45546;-77
2023/05/17 11:56:23;;;;;;;;;0.75;0.00;;;;;;;;5042101;28;45507;-79
2023/05/17 11:58:51;;;;;;;;;0.00;0.00;;;;;;;;5056125;28;46311;-77
2023/05/17 12:01:17;;;;;;;;;0.50;0.00;;;;;;;;5056691;28;47204;-77
2023/05/17 12:03:42;;;;;;;;;0.00;0.00;;;;;;;;5057596;28;45280;-78
2023/05/17 12:06:08;;;;;;;;;1.50;0.50;;;;;;;;5057121;28;45456;-78
2023/05/17 12:08:35;;;;;;;;;4.25;0.25;;;;;;;;5057052;28;46384;-77
2023/05/17 12:11:00;;;;;;;;;0.75;0.00;;;;;;;;5057019;28;45704;-77
2023/05/17 12:13:29;;;;;;;;;0.75;0.00;;;;;;;;5057104;28;45476;-79
2023/05/17 12:16:06;;;;;;;;;1.75;0.75;;;;;;;;5056557;28;45376;-78
2023/05/17 12:18:38;;;;;;;;;0.50;0.00;;;;;;;;5057261;28;46348;-77
2023/05/17 12:21:04;;;;;;;;;1.75;0.50;;;;;;;;5057433;28;45349;-78
2023/05/17 12:23:31;;;;;;;;;0.50;0.00;;;;;;;;5057255;28;45327;-77
2023/05/17 12:26:03;;;;;;;;;0.00;0.00;;;;;;;;5057276;28;45319;-78
2023/05/17 12:28:28;;;;;;;;;0.50;0.50;;;;;;;;5056526;28;46732;-77
2023/05/17 12:30:56;;;;;;;;;0.00;0.00;;;;;;;;5057318;28;45412;-78
2023/05/17 12:33:22;;;;;;;;;2.00;0.00;;;;;;;;5057075;28;45317;-77
2023/05/17 12:35:47;;;;;;;;;0.75;0.75;;;;;;;;5057218;28;45336;-78
2023/05/17 12:38:12;;;;;;;;;3.00;0.00;;;;;;;;5056827;28;46515;-78
2023/05/17 12:40:40;;;;;;;;;0.00;0.00;;;;;;;;5056991;28;45366;-78
2023/05/17 12:43:08;;;;;;;;;2.00;0.75;;;;;;;;5056827;28;45366;-77
2023/05/17 12:45:33;;;;;;;;;1.25;1.00;;;;;;;;5056927;28;45341;-77
2023/05/17 12:47:58;;;;;;;;;1.33;0.33;;;;;;;;5056808;28;46241;-77
2023/05/17 12:50:24;;;;;;;;;0.00;0.00;;;;;;;;5056607;28;45272;-77
2023/05/17 12:52:50;;;;;;;;;0.00;0.00;;;;;;;;5057153;28;45419;-78
2023/05/17 12:55:15;;;;;;;;;0.00;0.00;;;;;;;;5056823;28;45367;-78
2023/05/17 12:57:47;;;;;;;;;1.00;0.00;;;;;;;;5056242;28;46145;-78
2023/05/17 13:00:13;;;;;;;;;1.00;1.00;;;;;;;;5056694;28;45641;-78
2023/05/17 13:02:40;;;;;;;;;0.00;0.00;;;;;;;;5056698;28;45503;-78
2023/05/17 13:05:20;;;;;;;;;1.00;1.00;;;;;;;;5056693;28;45285;-78
2023/05/17 13:07:45;;;;;;;;;0.75;0.00;;;;;;;;5056388;28;46376;-78
2023/05/17 13:10:26;;;;;;;;;1.00;0.00;;;;;;;;5056675;28;45313;-78
2023/05/17 13:12:55;;;;;;;;;0.00;0.00;;;;;;;;5056249;28;45304;-78
2023/05/17 13:15:25;;;;;;;;;0.00;0.00;;;;;;;;5056571;28;45544;-78
2023/05/17 13:17:50;;;;;;;;;0.00;0.00;;;;;;;;5055975;28;47089;-78
2023/05/17 13:20:15;;;;;;;;;1.00;0.00;;;;;;;;5056530;28;45398;-78
2023/05/17 13:22:50;;;;;;;;;1.00;0.00;;;;;;;;5056538;28;45369;-78
2023/05/17 13:25:15;;;;;;;;;0.50;0.00;;;;;;;;5056367;28;45340;-77
2023/05/17 13:27:47;;;;;;;;;0.00;0.00;;;;;;;;5056042;28;45449;-77
2023/05/17 13:30:13;;;;;;;;;0.00;0.00;;;;;;;;5056137;28;45597;-78
2023/05/17 13:32:39;;;;;;;;;1.75;0.00;;;;;;;;5056354;28;45337;-78
2023/05/17 13:35:04;;;;;;;;;2.00;0.00;;;;;;;;5056292;28;45364;-78
2023/05/17 13:37:30;;;;;;;;;0.00;0.00;;;;;;;;5055882;28;46299;-77
2023/05/17 13:39:55;;;;;;;;;0.00;0.00;;;;;;;;5056136;28;45356;-78
2023/05/17 13:42:21;;;;;;;;;0.00;0.00;;;;;;;;5055737;28;45277;-78
2023/05/17 13:44:46;;;;;;;;;0.00;0.00;;;;;;;;5055338;28;45488;-78
2023/05/17 13:47:11;;;;;;;;;2.00;0.25;;;;;;;;5055916;28;45496;-77
2023/05/17 13:49:36;;;;;;;;;2.33;0.00;;;;;;;;5056115;28;45706;-78
2023/05/17 13:52:02;;;;;;;;;0.00;0.00;;;;;;;;5056099;28;45411;-78
2023/05/17 13:54:27;;;;;;;;;0.00;0.00;;;;;;;;5055829;28;45449;-78
2023/05/17 13:56:54;;;;;;;;;0.00;0.00;;;;;;;;5055514;28;46749;-78
2023/05/17 13:59:19;;;;;;;;;2.00;0.00;;;;;;;;5055939;28;45796;-78
2023/05/17 14:01:44;;;;;;;;;0.00;0.00;;;;;;;;5055797;28;45328;-78
2023/05/17 14:04:10;;;;;;;;;0.00;0.00;;;;;;;;5055944;28;45495;-78
2023/05/17 14:06:35;;;;;;;;;0.00;0.00;;;;;;;;5055577;28;46119;-78
2023/05/17 14:09:00;;;;;;;;;0.00;0.00;;;;;;;;5055556;28;45541;-78
2023/05/17 14:11:25;;;;;;;;;1.67;0.67;;;;;;;;5055489;28;45357;-78
2023/05/17 14:13:51;;;;;;;;;0.67;0.00;;;;;;;;5055572;28;45526;-77
2023/05/17 14:16:16;;;;;;;;;0.00;0.00;;;;;;;;5055553;28;46492;-78
2023/05/17 14:18:41;;;;;;;;;0.25;0.25;;;;;;;;5055457;28;45352;-78
2023/05/17 14:21:07;;;;;;;;;0.00;0.00;;;;;;;;5055629;28;45960;-78
2023/05/17 14:23:33;;;;;;;;;0.67;0.67;;;;;;;;5055680;28;45547;-78
2023/05/17 14:25:58;;;;;;;;;0.00;0.00;;;;;;;;5055095;28;46926;-78
2023/05/17 14:28:24;;;;;;;;;0.00;0.00;;;;;;;;5055560;28;45414;-77
2023/05/17 14:30:49;;;;;;;;;1.00;1.00;;;;;;;;5055574;28;45344;-78
2023/05/17 14:33:14;;;;;;;;;1.00;0.00;;;;;;;;5055459;28;45411;-77
2023/05/17 14:35:40;;;;;;;;;0.00;0.00;;;;;;;;5055211;28;46340;-78
2023/05/17 14:38:05;;;;;;;;;0.00;0.00;;;;;;;;5055308;28;45363;-77